Lake Charles, Louisiana
Current Conditions -  °F | °C
As of 8:55 AM on Monday 24 Nov 2014 (Local Time) from KCWF Reporting Station
Clear Clear  
Wind Chill: 54°   Ceiling: Unl
Heat Index: 54°   Visibility: 10mi
Dew Point: 45°   Wind: 15mph
Humidity: 72%   Direction: 340°NNW
Pressure: 29.96"   Gusts: 20mph
Location:  30.22°N, 93.22°W
Report Text: KCWF 241455Z 34013G17KT 10SM SKC 12/07 A2996
Loading
Personal Weather Stations






























Interactive Weather Map New forecast layout! Learn more

10-Day Weather Forecast

Advertisements
Track Severe Weather on mobile